createdAt,value
2023-02-01T05:41:31.717Z,100205.84
2023-02-01T05:44:34.439Z,100205.84
2023-02-01T05:47:37.178Z,100217.59
2023-02-01T05:50:40.780Z,100224.44
2023-02-01T05:53:43.825Z,100219.38
2023-02-01T05:56:47.751Z,100227.19
2023-02-01T05:59:50.858Z,100216.78
2023-02-01T06:02:53.941Z,100224.50
2023-02-01T06:05:56.763Z,100227.13
2023-02-01T06:08:59.721Z,100235.66
2023-02-01T06:12:02.938Z,100232.03
2023-02-01T06:15:06.720Z,100230.44
2023-02-01T06:18:09.521Z,100232.97
2023-02-01T06:21:12.182Z,100239.72
2023-02-01T06:24:15.399Z,100244.16
2023-02-01T06:27:18.563Z,100257.97
2023-02-01T06:30:21.544Z,100253.00
2023-02-01T06:33:25.190Z,100264.97
2023-02-01T06:36:28.091Z,100266.72
2023-02-01T06:39:30.879Z,100266.88
2023-02-01T06:42:33.594Z,100268.50
2023-02-01T06:45:36.247Z,100273.66
2023-02-01T06:48:38.814Z,100264.25
2023-02-01T06:51:41.412Z,100261.50
2023-02-01T06:54:45.666Z,100276.25
2023-02-01T06:57:51.307Z,100271.06
2023-02-01T07:00:55.528Z,100278.03
2023-02-01T07:03:58.211Z,100269.50
2023-02-01T07:07:01.336Z,100272.09
2023-02-01T07:10:04.048Z,100267.66
2023-02-01T07:13:06.612Z,100275.63
2023-02-01T07:16:13.950Z,100283.44
2023-02-01T07:19:17.004Z,100285.94
2023-02-01T07:22:20.107Z,100279.16
2023-02-01T07:25:22.938Z,100279.12
2023-02-01T07:28:26.190Z,100275.84
2023-02-01T07:31:30.251Z,100276.75
2023-02-01T07:34:34.228Z,100290.59
2023-02-01T07:37:37.109Z,100288.03
2023-02-01T07:40:40.171Z,100286.31
2023-02-01T07:43:42.766Z,100289.84
2023-02-01T07:46:45.518Z,100293.31
2023-02-01T07:49:48.261Z,100296.75
2023-02-01T07:52:51.243Z,100294.16
2023-02-01T07:55:54.864Z,100293.31
2023-02-01T07:58:57.452Z,100302.84
2023-02-01T08:02:00.143Z,100296.88
2023-02-01T08:05:02.758Z,100301.19
2023-02-01T08:08:05.711Z,100299.53
2023-02-01T08:11:08.243Z,100298.75
2023-02-01T08:14:11.167Z,100294.44
2023-02-01T08:17:14.390Z,100297.03
2023-02-01T08:20:17.747Z,100300.47
2023-02-01T08:23:21.211Z,100296.16
2023-02-01T08:26:25.316Z,100290.97
2023-02-01T08:29:28.029Z,100301.37
2023-02-01T08:32:30.600Z,100310.81
2023-02-01T08:35:42.793Z,100311.72
2023-02-01T08:38:46.658Z,100306.53
2023-02-01T08:42:09.159Z,100314.31
2023-02-01T08:45:11.820Z,100322.09
2023-02-01T08:48:33.154Z,100329.88
2023-02-01T08:51:38.199Z,100335.94
2023-02-01T08:54:42.190Z,100348.00
2023-02-01T08:57:44.818Z,100339.38
2023-02-01T09:00:49.150Z,100350.59
2023-02-01T09:03:51.698Z,100350.59
2023-02-01T09:06:56.656Z,100351.47
2023-02-01T09:10:02.416Z,100348.00
2023-02-01T09:13:05.307Z,100347.12
2023-02-01T09:16:08.006Z,100340.22
2023-02-01T09:19:27.246Z,100331.59
2023-02-01T09:22:29.997Z,100319.50
2023-02-01T09:25:32.559Z,100329.00
2023-02-01T09:28:35.063Z,100335.06
2023-02-01T09:31:39.964Z,100332.44
2023-02-01T09:34:42.711Z,100329.81
2023-02-01T09:37:45.359Z,100322.03
2023-02-01T09:40:48.051Z,100318.47
2023-02-01T09:44:19.810Z,100318.53
2023-02-01T09:47:23.708Z,100316.78
2023-02-01T09:50:38.478Z,100308.09
2023-02-01T09:53:43.403Z,100309.75
2023-02-01T09:57:23.730Z,100309.78
2023-02-01T10:00:36.472Z,100312.41
2023-02-01T10:03:40.680Z,100314.19
2023-02-01T10:06:56.292Z,100311.66
2023-02-01T10:10:06.374Z,100313.38
2023-02-01T10:13:27.823Z,100310.81
2023-02-01T10:16:38.416Z,100311.66
2023-02-01T10:20:29.214Z,100300.47
2023-02-01T10:24:16.830Z,100306.53
2023-02-01T10:27:44.004Z,100308.22
2023-02-01T10:30:47.841Z,100274.53
2023-02-01T10:34:07.522Z,100274.53
2023-02-01T10:37:22.654Z,100262.38
2023-02-01T10:40:27.029Z,100258.91
2023-02-01T10:43:29.822Z,100249.38
2023-02-01T10:46:33.127Z,100244.16
2023-02-01T10:49:58.543Z,100254.44
2023-02-01T10:53:23.201Z,100253.69
2023-02-01T10:56:27.187Z,100251.88
2023-02-01T10:59:30.494Z,100261.44
2023-02-01T11:02:34.472Z,100257.09
2023-02-01T11:05:46.806Z,100246.63
2023-02-01T11:08:51.253Z,100244.88
2023-02-01T11:11:58.327Z,100227.66
2023-02-01T11:15:13.661Z,100227.59
2023-02-01T11:18:18.625Z,100232.00
2023-02-01T11:21:21.220Z,100230.28
2023-02-01T11:24:32.861Z,100209.56
2023-02-01T11:27:40.290Z,100219.03
2023-02-01T11:30:46.957Z,100218.12
2023-02-01T11:33:55.339Z,100203.50
2023-02-01T11:37:02.535Z,100197.38
2023-02-01T11:40:17.510Z,100189.59
2023-02-01T11:43:28.407Z,100186.16
2023-02-01T11:46:35.347Z,100178.34
2023-02-01T11:49:40.372Z,100174.03
2023-02-01T11:53:09.093Z,100180.03
2023-02-01T11:56:21.539Z,100183.56
2023-02-01T11:59:56.308Z,100175.78
2023-02-01T12:03:06.745Z,100165.47
2023-02-01T12:06:58.293Z,100167.25
2023-02-01T12:10:40.476Z,100167.25
2023-02-01T12:13:53.570Z,100162.94
2023-02-01T12:17:20.509Z,100145.81
2023-02-01T12:20:27.902Z,100142.37
2023-02-01T12:23:50.538Z,100135.47
2023-02-01T12:27:17.884Z,100142.28
2023-02-01T12:30:27.130Z,100135.37
2023-02-01T12:33:48.527Z,100143.28
2023-02-01T12:36:53.891Z,100144.09
2023-02-01T12:40:04.209Z,100140.66
2023-02-01T12:43:22.680Z,100147.59
2023-02-01T12:46:30.548Z,100152.78
2023-02-01T12:49:45.771Z,100159.75
2023-02-01T12:52:52.711Z,100171.81
2023-02-01T12:56:00.470Z,100175.19
2023-02-01T12:59:05.710Z,100181.25
2023-02-01T13:02:28.383Z,100200.94
2023-02-01T13:05:46.495Z,100196.47
2023-02-01T13:09:04.725Z,100192.03
2023-02-01T13:12:41.588Z,100196.28
2023-02-01T13:15:47.752Z,100179.09
2023-02-01T13:18:51.019Z,100170.47
2023-02-01T13:22:00.623Z,100167.88
2023-02-01T13:25:06.024Z,100155.06
2023-02-01T13:28:13.207Z,100141.41
2023-02-01T13:31:40.709Z,100118.22
2023-02-01T13:35:13.167Z,100119.94
2023-02-01T13:38:32.381Z,100116.50
2023-02-01T13:41:57.955Z,100108.75
2023-02-01T13:45:14.629Z,100104.41
2023-02-01T13:48:39.718Z,100109.56
2023-02-01T13:51:43.849Z,100120.62
2023-02-01T13:54:46.397Z,100113.84
2023-02-01T13:57:50.514Z,100111.28
2023-02-01T14:00:53.211Z,100129.38
2023-02-01T14:04:03.499Z,100122.50
2023-02-01T14:07:20.168Z,100140.53
2023-02-01T14:10:58.009Z,100128.47
2023-02-01T14:14:28.059Z,100124.09
2023-02-01T14:17:31.577Z,100135.34
2023-02-01T14:20:46.510Z,100131.03
2023-02-01T14:24:02.343Z,100137.00
2023-02-01T14:27:14.470Z,100128.37
2023-02-01T14:30:18.146Z,100109.50
2023-02-01T14:33:25.325Z,100113.84
2023-02-01T14:36:27.941Z,100126.81
2023-02-01T14:39:34.546Z,100134.56
2023-02-01T14:42:43.273Z,100146.59
2023-02-01T14:45:51.266Z,100158.69
2023-02-01T14:48:53.960Z,100153.44
2023-02-01T14:51:57.294Z,100163.78
2023-02-01T14:55:03.302Z,100190.41
2023-02-01T14:58:17.848Z,100180.13
2023-02-01T15:01:31.647Z,100181.84
2023-02-01T15:04:43.210Z,100167.22
2023-02-01T15:07:45.754Z,100162.03
2023-02-01T15:10:49.452Z,100166.44
2023-02-01T15:13:55.040Z,100159.50
2023-02-01T15:16:58.495Z,100147.44
2023-02-01T15:20:17.104Z,100145.69
2023-02-01T15:23:21.556Z,100147.38
2023-02-01T15:26:31.892Z,100157.69
2023-02-01T15:29:35.184Z,100155.09
2023-02-01T15:32:40.295Z,100150.78
2023-02-01T15:35:47.775Z,100156.03
2023-02-01T15:38:50.519Z,100157.78
2023-02-01T15:42:02.001Z,100153.53
2023-02-01T15:45:04.860Z,100143.13
2023-02-01T15:48:12.855Z,100143.97
2023-02-01T15:51:20.661Z,100136.19
2023-02-01T15:54:50.211Z,100136.19
2023-02-01T15:57:52.866Z,100142.19
2023-02-01T16:00:58.537Z,100142.19
2023-02-01T16:04:24.243Z,100143.06
2023-02-01T16:07:28.700Z,100149.16
2023-02-01T16:10:31.462Z,100145.66
2023-02-01T16:13:34.005Z,100152.53
2023-02-01T16:16:37.245Z,100160.28
2023-02-01T16:19:39.784Z,100164.62
